Terminal Aerodrome Forecast
Issued by NWS

Home | Current Version | Previous Version | Text Only | Print | Product List | Glossary On
Versions: 1 2 3 4 5 6 7 8 9 10 11 12 13 14
000
FTUS42 KGSP 291126
TAFAND
TAF
KAND 291126Z 2912/3012 03003KT P6SM SCT180
     FM291500 10003KT P6SM SCT180
     FM300100 14003KT P6SM BKN100
     FM300200 00000KT P6SM SCT050 BKN100=

USA.gov is the U.S. government's official web portal to all federal, state and local government web resources and services.